sensor_id;sensor_type;location;lat;lon;timestamp;P1;durP1;ratioP1;P2;durP2;ratioP2
2944;SDS011;1482;51.398;7.128;2024-01-10T00:00:18;8.60;;;4.43;;
2944;SDS011;1482;51.398;7.128;2024-01-10T00:02:43;9.80;;;4.30;;
2944;SDS011;1482;51.398;7.128;2024-01-10T00:05:09;8.17;;;4.43;;
2944;SDS011;1482;51.398;7.128;2024-01-10T00:07:34;12.90;;;5.53;;
2944;SDS011;1482;51.398;7.128;2024-01-10T00:10:01;7.93;;;3.70;;
2944;SDS011;1482;51.398;7.128;2024-01-10T00:12:28;12.33;;;4.77;;
2944;SDS011;1482;51.398;7.128;2024-01-10T00:14:58;13.83;;;5.33;;
2944;SDS011;1482;51.398;7.128;2024-01-10T00:17:24;9.63;;;5.13;;
2944;SDS011;1482;51.398;7.128;2024-01-10T00:19:49;7.67;;;4.50;;
2944;SDS011;1482;51.398;7.128;2024-01-10T00:22:15;6.00;;;4.30;;
2944;SDS011;1482;51.398;7.128;2024-01-10T00:24:40;5.70;;;4.87;;
2944;SDS011;1482;51.398;7.128;2024-01-10T00:27:06;5.60;;;4.17;;
2944;SDS011;1482;51.398;7.128;2024-01-10T00:29:31;8.30;;;4.53;;
2944;SDS011;1482;51.398;7.128;2024-01-10T00:31:57;13.77;;;6.43;;
2944;SDS011;1482;51.398;7.128;2024-01-10T00:34:24;14.00;;;5.90;;
2944;SDS011;1482;51.398;7.128;2024-01-10T00:36:50;6.93;;;4.23;;
2944;SDS011;1482;51.398;7.128;2024-01-10T00:39:15;7.60;;;5.07;;
2944;SDS011;1482;51.398;7.128;2024-01-10T00:41:41;11.33;;;4.83;;
2944;SDS011;1482;51.398;7.128;2024-01-10T00:44:06;9.80;;;6.37;;
2944;SDS011;1482;51.398;7.128;2024-01-10T00:46:31;8.10;;;4.53;;
2944;SDS011;1482;51.398;7.128;2024-01-10T00:48:57;8.17;;;4.47;;
2944;SDS011;1482;51.398;7.128;2024-01-10T00:51:22;10.50;;;5.13;;
2944;SDS011;1482;51.398;7.128;2024-01-10T00:53:48;10.90;;;5.00;;
2944;SDS011;1482;51.398;7.128;2024-01-10T00:56:13;10.73;;;6.20;;
2944;SDS011;1482;51.398;7.128;2024-01-10T00:58:39;9.50;;;4.03;;
2944;SDS011;1482;51.398;7.128;2024-01-10T01:01:05;3.97;;;3.40;;
2944;SDS011;1482;51.398;7.128;2024-01-10T01:03:30;6.20;;;4.17;;
2944;SDS011;1482;51.398;7.128;2024-01-10T01:05:56;13.33;;;5.87;;
2944;SDS011;1482;51.398;7.128;2024-01-10T01:08:21;7.77;;;4.27;;
2944;SDS011;1482;51.398;7.128;2024-01-10T01:10:47;11.50;;;5.90;;
2944;SDS011;1482;51.398;7.128;2024-01-10T01:13:12;5.97;;;3.80;;
2944;SDS011;1482;51.398;7.128;2024-01-10T01:15:38;8.43;;;4.20;;
2944;SDS011;1482;51.398;7.128;2024-01-10T01:18:03;7.73;;;6.43;;
2944;SDS011;1482;51.398;7.128;2024-01-10T01:20:29;11.27;;;4.40;;
2944;SDS011;1482;51.398;7.128;2024-01-10T01:22:54;8.30;;;4.47;;
2944;SDS011;1482;51.398;7.128;2024-01-10T01:25:20;8.33;;;4.77;;
2944;SDS011;1482;51.398;7.128;2024-01-10T01:27:45;11.37;;;5.87;;
2944;SDS011;1482;51.398;7.128;2024-01-10T01:30:11;6.60;;;4.10;;
2944;SDS011;1482;51.398;7.128;2024-01-10T01:32:37;14.50;;;4.80;;
2944;SDS011;1482;51.398;7.128;2024-01-10T01:35:02;13.50;;;4.97;;
2944;SDS011;1482;51.398;7.128;2024-01-10T01:37:28;9.70;;;4.50;;
2944;SDS011;1482;51.398;7.128;2024-01-10T01:39:54;11.20;;;5.20;;
2944;SDS011;1482;51.398;7.128;2024-01-10T01:42:19;7.00;;;3.40;;
2944;SDS011;1482;51.398;7.128;2024-01-10T01:44:45;11.30;;;6.00;;
2944;SDS011;1482;51.398;7.128;2024-01-10T01:47:10;6.50;;;3.60;;
2944;SDS011;1482;51.398;7.128;2024-01-10T01:49:36;6.30;;;4.40;;
2944;SDS011;1482;51.398;7.128;2024-01-10T01:52:02;8.50;;;4.80;;
2944;SDS011;1482;51.398;7.128;2024-01-10T01:54:28;9.93;;;4.80;;
2944;SDS011;1482;51.398;7.128;2024-01-10T01:56:56;10.47;;;5.43;;
2944;SDS011;1482;51.398;7.128;2024-01-10T01:59:22;9.67;;;6.20;;
2944;SDS011;1482;51.398;7.128;2024-01-10T02:01:48;8.97;;;5.53;;
2944;SDS011;1482;51.398;7.128;2024-01-10T02:04:14;6.53;;;4.10;;
2944;SDS011;1482;51.398;7.128;2024-01-10T02:06:39;6.70;;;4.53;;
2944;SDS011;1482;51.398;7.128;2024-01-10T02:09:05;6.50;;;4.17;;
2944;SDS011;1482;51.398;7.128;2024-01-10T02:11:31;18.00;;;6.50;;
2944;SDS011;1482;51.398;7.128;2024-01-10T02:13:57;7.37;;;4.43;;
2944;SDS011;1482;51.398;7.128;2024-01-10T02:16:23;11.30;;;6.00;;
2944;SDS011;1482;51.398;7.128;2024-01-10T02:18:49;7.13;;;4.23;;
2944;SDS011;1482;51.398;7.128;2024-01-10T02:21:15;9.73;;;5.43;;
2944;SDS011;1482;51.398;7.128;2024-01-10T02:23:41;8.27;;;4.97;;
2944;SDS011;1482;51.398;7.128;2024-01-10T02:26:07;10.37;;;6.30;;
2944;SDS011;1482;51.398;7.128;2024-01-10T02:28:32;12.50;;;6.17;;
2944;SDS011;1482;51.398;7.128;2024-01-10T02:30:58;12.37;;;5.90;;
2944;SDS011;1482;51.398;7.128;2024-01-10T02:33:25;7.07;;;3.70;;
2944;SDS011;1482;51.398;7.128;2024-01-10T02:35:50;8.17;;;5.53;;
2944;SDS011;1482;51.398;7.128;2024-01-10T02:38:16;9.73;;;5.70;;
2944;SDS011;1482;51.398;7.128;2024-01-10T02:40:42;9.90;;;6.07;;
2944;SDS011;1482;51.398;7.128;2024-01-10T02:43:08;12.17;;;6.70;;
2944;SDS011;1482;51.398;7.128;2024-01-10T02:45:34;15.87;;;6.30;;
2944;SDS011;1482;51.398;7.128;2024-01-10T02:48:00;7.40;;;4.50;;
2944;SDS011;1482;51.398;7.128;2024-01-10T02:50:26;13.40;;;6.00;;
2944;SDS011;1482;51.398;7.128;2024-01-10T02:52:51;9.13;;;4.87;;
2944;SDS011;1482;51.398;7.128;2024-01-10T02:55:17;8.87;;;5.10;;
2944;SDS011;1482;51.398;7.128;2024-01-10T02:57:42;7.70;;;5.67;;
2944;SDS011;1482;51.398;7.128;2024-01-10T03:00:08;13.73;;;5.73;;
2944;SDS011;1482;51.398;7.128;2024-01-10T03:02:34;7.40;;;5.30;;
2944;SDS011;1482;51.398;7.128;2024-01-10T03:04:59;10.73;;;5.80;;
2944;SDS011;1482;51.398;7.128;2024-01-10T03:07:25;8.17;;;4.63;;
2944;SDS011;1482;51.398;7.128;2024-01-10T03:09:51;9.47;;;5.83;;
2944;SDS011;1482;51.398;7.128;2024-01-10T03:12:16;8.37;;;5.10;;
2944;SDS011;1482;51.398;7.128;2024-01-10T03:14:42;7.83;;;4.70;;
2944;SDS011;1482;51.398;7.128;2024-01-10T03:17:07;7.47;;;4.27;;
2944;SDS011;1482;51.398;7.128;2024-01-10T03:19:33;13.73;;;5.50;;
2944;SDS011;1482;51.398;7.128;2024-01-10T03:21:58;4.37;;;3.97;;
2944;SDS011;1482;51.398;7.128;2024-01-10T03:24:24;7.60;;;5.13;;
2944;SDS011;1482;51.398;7.128;2024-01-10T03:26:52;9.90;;;6.30;;
2944;SDS011;1482;51.398;7.128;2024-01-10T03:29:17;9.00;;;5.30;;
2944;SDS011;1482;51.398;7.128;2024-01-10T03:31:43;9.10;;;5.40;;
2944;SDS011;1482;51.398;7.128;2024-01-10T03:34:08;11.80;;;6.00;;
2944;SDS011;1482;51.398;7.128;2024-01-10T03:36:34;13.67;;;6.33;;
2944;SDS011;1482;51.398;7.128;2024-01-10T03:38:59;12.20;;;6.70;;
2944;SDS011;1482;51.398;7.128;2024-01-10T03:41:25;9.97;;;5.00;;
2944;SDS011;1482;51.398;7.128;2024-01-10T03:43:51;8.43;;;5.20;;
2944;SDS011;1482;51.398;7.128;2024-01-10T03:46:16;12.70;;;6.03;;
2944;SDS011;1482;51.398;7.128;2024-01-10T03:48:43;9.90;;;5.80;;
2944;SDS011;1482;51.398;7.128;2024-01-10T03:51:16;8.90;;;4.00;;
2944;SDS011;1482;51.398;7.128;2024-01-10T03:53:42;8.50;;;4.83;;
2944;SDS011;1482;51.398;7.128;2024-01-10T03:56:08;7.83;;;4.30;;
2944;SDS011;1482;51.398;7.128;2024-01-10T03:58:34;10.30;;;4.97;;
2944;SDS011;1482;51.398;7.128;2024-01-10T04:01:03;9.00;;;4.93;;
2944;SDS011;1482;51.398;7.128;2024-01-10T04:03:30;7.20;;;4.40;;
2944;SDS011;1482;51.398;7.128;2024-01-10T04:05:56;7.37;;;4.10;;
2944;SDS011;1482;51.398;7.128;2024-01-10T04:08:22;11.83;;;4.97;;
2944;SDS011;1482;51.398;7.128;2024-01-10T04:10:47;11.13;;;5.30;;
2944;SDS011;1482;51.398;7.128;2024-01-10T04:13:13;7.60;;;5.13;;
2944;SDS011;1482;51.398;7.128;2024-01-10T04:15:38;9.73;;;5.03;;
2944;SDS011;1482;51.398;7.128;2024-01-10T04:18:04;9.30;;;4.40;;
2944;SDS011;1482;51.398;7.128;2024-01-10T04:20:29;12.20;;;5.00;;
2944;SDS011;1482;51.398;7.128;2024-01-10T04:22:56;11.57;;;5.73;;
2944;SDS011;1482;51.398;7.128;2024-01-10T04:25:21;8.40;;;4.00;;
2944;SDS011;1482;51.398;7.128;2024-01-10T04:27:47;9.10;;;5.30;;
2944;SDS011;1482;51.398;7.128;2024-01-10T04:30:15;8.43;;;4.40;;
2944;SDS011;1482;51.398;7.128;2024-01-10T04:32:40;15.47;;;4.70;;
2944;SDS011;1482;51.398;7.128;2024-01-10T04:35:06;7.47;;;5.23;;
2944;SDS011;1482;51.398;7.128;2024-01-10T04:37:32;16.23;;;4.67;;
2944;SDS011;1482;51.398;7.128;2024-01-10T04:39:57;7.60;;;5.17;;
2944;SDS011;1482;51.398;7.128;2024-01-10T04:42:23;7.37;;;5.27;;
2944;SDS011;1482;51.398;7.128;2024-01-10T04:44:48;10.67;;;5.13;;
2944;SDS011;1482;51.398;7.128;2024-01-10T04:47:14;8.00;;;5.83;;
2944;SDS011;1482;51.398;7.128;2024-01-10T04:49:40;5.70;;;4.13;;
2944;SDS011;1482;51.398;7.128;2024-01-10T04:52:06;13.00;;;5.93;;
2944;SDS011;1482;51.398;7.128;2024-01-10T04:54:31;6.73;;;4.57;;
2944;SDS011;1482;51.398;7.128;2024-01-10T04:56:57;8.30;;;4.80;;
2944;SDS011;1482;51.398;7.128;2024-01-10T04:59:23;8.07;;;4.37;;
2944;SDS011;1482;51.398;7.128;2024-01-10T05:01:48;7.77;;;5.37;;
2944;SDS011;1482;51.398;7.128;2024-01-10T05:04:14;11.00;;;5.07;;
2944;SDS011;1482;51.398;7.128;2024-01-10T05:06:39;6.97;;;3.67;;
2944;SDS011;1482;51.398;7.128;2024-01-10T05:09:06;8.73;;;4.80;;
2944;SDS011;1482;51.398;7.128;2024-01-10T05:11:31;10.10;;;4.90;;
2944;SDS011;1482;51.398;7.128;2024-01-10T05:13:57;9.90;;;5.50;;
2944;SDS011;1482;51.398;7.128;2024-01-10T05:16:23;7.90;;;4.37;;
2944;SDS011;1482;51.398;7.128;2024-01-10T05:18:48;6.43;;;4.13;;
2944;SDS011;1482;51.398;7.128;2024-01-10T05:21:14;8.13;;;5.50;;
2944;SDS011;1482;51.398;7.128;2024-01-10T05:23:39;25.00;;;5.73;;
2944;SDS011;1482;51.398;7.128;2024-01-10T05:26:05;12.10;;;4.00;;
2944;SDS011;1482;51.398;7.128;2024-01-10T05:28:31;16.57;;;5.57;;
2944;SDS011;1482;51.398;7.128;2024-01-10T05:30:57;9.60;;;4.77;;
2944;SDS011;1482;51.398;7.128;2024-01-10T05:33:23;5.83;;;4.50;;
2944;SDS011;1482;51.398;7.128;2024-01-10T05:35:49;10.70;;;5.57;;
2944;SDS011;1482;51.398;7.128;2024-01-10T05:38:14;10.80;;;6.00;;
2944;SDS011;1482;51.398;7.128;2024-01-10T05:40:40;10.50;;;4.10;;
2944;SDS011;1482;51.398;7.128;2024-01-10T05:43:05;7.77;;;5.70;;
2944;SDS011;1482;51.398;7.128;2024-01-10T05:45:32;10.47;;;5.60;;
2944;SDS011;1482;51.398;7.128;2024-01-10T05:47:57;9.80;;;6.23;;
2944;SDS011;1482;51.398;7.128;2024-01-10T05:50:23;13.87;;;6.67;;
2944;SDS011;1482;51.398;7.128;2024-01-10T05:52:49;11.20;;;6.20;;
2944;SDS011;1482;51.398;7.128;2024-01-10T05:55:14;10.97;;;6.00;;
2944;SDS011;1482;51.398;7.128;2024-01-10T05:57:40;14.33;;;6.33;;
2944;SDS011;1482;51.398;7.128;2024-01-10T06:00:06;11.80;;;5.60;;
2944;SDS011;1482;51.398;7.128;2024-01-10T06:02:37;13.87;;;8.23;;
2944;SDS011;1482;51.398;7.128;2024-01-10T06:05:12;7.67;;;5.70;;
2944;SDS011;1482;51.398;7.128;2024-01-10T06:07:38;11.33;;;4.97;;
2944;SDS011;1482;51.398;7.128;2024-01-10T06:10:05;8.97;;;4.77;;
2944;SDS011;1482;51.398;7.128;2024-01-10T06:12:31;15.27;;;5.40;;
2944;SDS011;1482;51.398;7.128;2024-01-10T06:14:57;10.30;;;5.80;;
2944;SDS011;1482;51.398;7.128;2024-01-10T06:17:23;11.03;;;5.80;;
2944;SDS011;1482;51.398;7.128;2024-01-10T06:19:48;17.13;;;9.17;;
2944;SDS011;1482;51.398;7.128;2024-01-10T06:22:14;15.70;;;7.10;;
2944;SDS011;1482;51.398;7.128;2024-01-10T06:24:41;11.77;;;5.67;;
2944;SDS011;1482;51.398;7.128;2024-01-10T06:27:07;24.53;;;8.17;;
2944;SDS011;1482;51.398;7.128;2024-01-10T06:29:33;13.13;;;7.37;;
2944;SDS011;1482;51.398;7.128;2024-01-10T06:31:59;10.73;;;5.57;;
2944;SDS011;1482;51.398;7.128;2024-01-10T06:34:26;8.60;;;5.23;;
2944;SDS011;1482;51.398;7.128;2024-01-10T06:36:52;20.20;;;6.10;;
2944;SDS011;1482;51.398;7.128;2024-01-10T06:39:18;12.07;;;7.10;;
2944;SDS011;1482;51.398;7.128;2024-01-10T06:41:45;13.23;;;7.00;;
2944;SDS011;1482;51.398;7.128;2024-01-10T06:44:11;10.03;;;5.23;;
2944;SDS011;1482;51.398;7.128;2024-01-10T06:46:36;13.60;;;8.07;;
2944;SDS011;1482;51.398;7.128;2024-01-10T06:49:02;14.53;;;8.50;;
2944;SDS011;1482;51.398;7.128;2024-01-10T06:51:28;11.03;;;6.03;;
2944;SDS011;1482;51.398;7.128;2024-01-10T06:53:53;10.70;;;6.00;;
2944;SDS011;1482;51.398;7.128;2024-01-10T06:56:25;10.23;;;7.07;;
2944;SDS011;1482;51.398;7.128;2024-01-10T06:58:50;19.27;;;8.13;;
2944;SDS011;1482;51.398;7.128;2024-01-10T07:01:16;15.20;;;5.60;;
2944;SDS011;1482;51.398;7.128;2024-01-10T07:03:42;10.00;;;5.80;;
2944;SDS011;1482;51.398;7.128;2024-01-10T07:06:07;11.73;;;5.90;;
2944;SDS011;1482;51.398;7.128;2024-01-10T07:08:33;16.83;;;8.20;;
2944;SDS011;1482;51.398;7.128;2024-01-10T07:10:58;9.00;;;6.00;;
2944;SDS011;1482;51.398;7.128;2024-01-10T07:13:24;19.10;;;9.07;;
2944;SDS011;1482;51.398;7.128;2024-01-10T07:15:49;17.00;;;7.67;;
2944;SDS011;1482;51.398;7.128;2024-01-10T07:18:18;13.17;;;5.63;;
2944;SDS011;1482;51.398;7.128;2024-01-10T07:20:43;15.47;;;7.33;;
2944;SDS011;1482;51.398;7.128;2024-01-10T07:23:09;14.73;;;8.67;;
2944;SDS011;1482;51.398;7.128;2024-01-10T07:25:35;14.33;;;6.70;;
2944;SDS011;1482;51.398;7.128;2024-01-10T07:28:02;12.50;;;7.23;;
2944;SDS011;1482;51.398;7.128;2024-01-10T07:30:30;15.17;;;7.80;;
2944;SDS011;1482;51.398;7.128;2024-01-10T07:32:58;14.80;;;6.67;;
2944;SDS011;1482;51.398;7.128;2024-01-10T07:35:24;17.73;;;10.20;;
2944;SDS011;1482;51.398;7.128;2024-01-10T07:37:49;18.50;;;8.03;;
2944;SDS011;1482;51.398;7.128;2024-01-10T07:40:15;16.40;;;8.43;;
2944;SDS011;1482;51.398;7.128;2024-01-10T07:42:42;15.00;;;8.27;;
2944;SDS011;1482;51.398;7.128;2024-01-10T07:45:08;18.87;;;9.03;;
2944;SDS011;1482;51.398;7.128;2024-01-10T07:47:34;17.63;;;8.47;;
2944;SDS011;1482;51.398;7.128;2024-01-10T07:50:03;20.33;;;10.33;;
2944;SDS011;1482;51.398;7.128;2024-01-10T07:52:33;9.57;;;8.10;;
2944;SDS011;1482;51.398;7.128;2024-01-10T07:54:59;16.03;;;8.47;;
2944;SDS011;1482;51.398;7.128;2024-01-10T07:57:25;12.00;;;6.50;;
2944;SDS011;1482;51.398;7.128;2024-01-10T07:59:52;19.27;;;9.00;;
2944;SDS011;1482;51.398;7.128;2024-01-10T08:02:18;11.70;;;7.80;;
2944;SDS011;1482;51.398;7.128;2024-01-10T08:04:43;26.63;;;9.77;;
2944;SDS011;1482;51.398;7.128;2024-01-10T08:07:09;18.80;;;9.70;;
2944;SDS011;1482;51.398;7.128;2024-01-10T08:09:35;16.13;;;8.60;;
2944;SDS011;1482;51.398;7.128;2024-01-10T08:12:01;17.33;;;9.80;;
2944;SDS011;1482;51.398;7.128;2024-01-10T08:14:27;13.17;;;8.43;;
2944;SDS011;1482;51.398;7.128;2024-01-10T08:16:53;19.43;;;7.20;;
2944;SDS011;1482;51.398;7.128;2024-01-10T08:19:19;14.50;;;7.17;;
2944;SDS011;1482;51.398;7.128;2024-01-10T08:21:45;20.30;;;10.73;;
2944;SDS011;1482;51.398;7.128;2024-01-10T08:24:11;17.73;;;7.07;;
2944;SDS011;1482;51.398;7.128;2024-01-10T08:26:36;27.67;;;10.93;;
2944;SDS011;1482;51.398;7.128;2024-01-10T08:29:03;22.33;;;10.20;;
2944;SDS011;1482;51.398;7.128;2024-01-10T08:31:28;19.77;;;10.57;;
2944;SDS011;1482;51.398;7.128;2024-01-10T08:33:54;18.50;;;11.37;;
2944;SDS011;1482;51.398;7.128;2024-01-10T08:36:21;25.13;;;12.60;;
2944;SDS011;1482;51.398;7.128;2024-01-10T08:38:49;20.47;;;10.63;;
2944;SDS011;1482;51.398;7.128;2024-01-10T08:41:15;20.87;;;11.83;;
2944;SDS011;1482;51.398;7.128;2024-01-10T08:43:40;26.83;;;15.50;;
2944;SDS011;1482;51.398;7.128;2024-01-10T08:46:06;23.60;;;12.30;;
2944;SDS011;1482;51.398;7.128;2024-01-10T08:48:33;21.37;;;12.87;;
2944;SDS011;1482;51.398;7.128;2024-01-10T08:50:58;21.13;;;11.23;;
2944;SDS011;1482;51.398;7.128;2024-01-10T08:53:24;18.63;;;12.33;;
2944;SDS011;1482;51.398;7.128;2024-01-10T08:55:49;19.27;;;13.33;;
2944;SDS011;1482;51.398;7.128;2024-01-10T08:58:15;21.93;;;12.93;;
2944;SDS011;1482;51.398;7.128;2024-01-10T09:00:40;29.40;;;12.53;;
2944;SDS011;1482;51.398;7.128;2024-01-10T09:03:06;23.03;;;14.23;;
2944;SDS011;1482;51.398;7.128;2024-01-10T09:05:32;20.40;;;12.70;;
2944;SDS011;1482;51.398;7.128;2024-01-10T09:07:58;19.90;;;12.77;;
2944;SDS011;1482;51.398;7.128;2024-01-10T09:10:23;32.20;;;20.23;;
2944;SDS011;1482;51.398;7.128;2024-01-10T09:12:52;63.33;;;39.53;;
2944;SDS011;1482;51.398;7.128;2024-01-10T09:15:18;29.10;;;21.90;;
2944;SDS011;1482;51.398;7.128;2024-01-10T09:17:44;30.20;;;21.90;;
2944;SDS011;1482;51.398;7.128;2024-01-10T09:20:10;22.50;;;16.73;;
2944;SDS011;1482;51.398;7.128;2024-01-10T09:22:37;22.30;;;15.77;;
2944;SDS011;1482;51.398;7.128;2024-01-10T09:25:05;20.73;;;16.23;;
2944;SDS011;1482;51.398;7.128;2024-01-10T09:27:32;22.30;;;14.77;;
2944;SDS011;1482;51.398;7.128;2024-01-10T09:30:01;20.57;;;15.17;;
2944;SDS011;1482;51.398;7.128;2024-01-10T09:32:27;33.90;;;19.90;;
2944;SDS011;1482;51.398;7.128;2024-01-10T09:34:55;34.67;;;18.93;;
2944;SDS011;1482;51.398;7.128;2024-01-10T09:37:21;25.00;;;15.97;;
2944;SDS011;1482;51.398;7.128;2024-01-10T09:39:48;20.43;;;14.00;;
2944;SDS011;1482;51.398;7.128;2024-01-10T09:42:14;23.13;;;14.50;;
2944;SDS011;1482;51.398;7.128;2024-01-10T09:44:40;22.40;;;14.50;;
2944;SDS011;1482;51.398;7.128;2024-01-10T09:47:06;21.50;;;14.03;;
2944;SDS011;1482;51.398;7.128;2024-01-10T09:49:32;23.80;;;16.47;;
2944;SDS011;1482;51.398;7.128;2024-01-10T09:51:59;23.63;;;14.40;;
2944;SDS011;1482;51.398;7.128;2024-01-10T09:54:29;28.07;;;17.10;;
2944;SDS011;1482;51.398;7.128;2024-01-10T09:56:56;22.93;;;16.10;;
2944;SDS011;1482;51.398;7.128;2024-01-10T09:59:22;23.13;;;14.30;;
2944;SDS011;1482;51.398;7.128;2024-01-10T10:01:48;21.27;;;14.37;;
2944;SDS011;1482;51.398;7.128;2024-01-10T10:04:15;23.87;;;13.03;;
2944;SDS011;1482;51.398;7.128;2024-01-10T10:06:44;23.00;;;15.23;;
2944;SDS011;1482;51.398;7.128;2024-01-10T10:09:10;24.77;;;14.10;;
2944;SDS011;1482;51.398;7.128;2024-01-10T10:11:37;23.97;;;15.10;;
2944;SDS011;1482;51.398;7.128;2024-01-10T10:14:36;33.20;;;15.07;;
2944;SDS011;1482;51.398;7.128;2024-01-10T10:16:55;30.43;;;15.67;;
2944;SDS011;1482;51.398;7.128;2024-01-10T10:19:22;24.07;;;13.67;;
2944;SDS011;1482;51.398;7.128;2024-01-10T10:21:51;22.00;;;12.23;;
2944;SDS011;1482;51.398;7.128;2024-01-10T10:24:16;26.70;;;15.03;;
2944;SDS011;1482;51.398;7.128;2024-01-10T10:26:42;23.60;;;14.17;;
2944;SDS011;1482;51.398;7.128;2024-01-10T10:29:08;21.23;;;12.90;;
2944;SDS011;1482;51.398;7.128;2024-01-10T10:31:34;23.13;;;13.60;;
2944;SDS011;1482;51.398;7.128;2024-01-10T10:34:01;24.90;;;13.53;;
2944;SDS011;1482;51.398;7.128;2024-01-10T10:36:30;22.73;;;12.27;;
2944;SDS011;1482;51.398;7.128;2024-01-10T10:38:59;20.10;;;11.20;;
2944;SDS011;1482;51.398;7.128;2024-01-10T10:41:27;29.63;;;13.63;;
2944;SDS011;1482;51.398;7.128;2024-01-10T10:43:55;20.37;;;13.20;;
2944;SDS011;1482;51.398;7.128;2024-01-10T10:46:21;20.93;;;12.30;;
2944;SDS011;1482;51.398;7.128;2024-01-10T10:48:52;20.90;;;14.07;;
2944;SDS011;1482;51.398;7.128;2024-01-10T10:51:30;26.40;;;14.00;;
2944;SDS011;1482;51.398;7.128;2024-01-10T10:54:01;22.50;;;11.30;;
2944;SDS011;1482;51.398;7.128;2024-01-10T10:56:29;26.40;;;11.70;;
2944;SDS011;1482;51.398;7.128;2024-01-10T10:58:57;25.87;;;11.93;;
2944;SDS011;1482;51.398;7.128;2024-01-10T11:01:25;21.10;;;13.27;;
2944;SDS011;1482;51.398;7.128;2024-01-10T11:03:52;28.80;;;11.70;;
2944;SDS011;1482;51.398;7.128;2024-01-10T11:06:19;19.70;;;13.30;;
2944;SDS011;1482;51.398;7.128;2024-01-10T11:08:50;30.23;;;14.77;;
2944;SDS011;1482;51.398;7.128;2024-01-10T11:22:50;23.13;;;14.10;;
2944;SDS011;1482;51.398;7.128;2024-01-10T11:25:36;31.03;;;14.07;;
2944;SDS011;1482;51.398;7.128;2024-01-10T11:28:04;26.60;;;13.87;;
2944;SDS011;1482;51.398;7.128;2024-01-10T11:30:33;28.67;;;13.80;;
2944;SDS011;1482;51.398;7.128;2024-01-10T11:33:17;27.27;;;14.80;;
2944;SDS011;1482;51.398;7.128;2024-01-10T11:36:06;29.70;;;14.77;;
2944;SDS011;1482;51.398;7.128;2024-01-10T11:38:41;24.93;;;13.03;;
2944;SDS011;1482;51.398;7.128;2024-01-10T11:41:13;25.53;;;14.37;;
2944;SDS011;1482;51.398;7.128;2024-01-10T11:43:45;29.57;;;13.50;;
2944;SDS011;1482;51.398;7.128;2024-01-10T11:46:12;35.30;;;17.43;;
2944;SDS011;1482;51.398;7.128;2024-01-10T11:48:38;33.20;;;16.07;;
2944;SDS011;1482;51.398;7.128;2024-01-10T11:51:04;32.40;;;15.40;;
2944;SDS011;1482;51.398;7.128;2024-01-10T11:53:41;22.77;;;13.53;;
2944;SDS011;1482;51.398;7.128;2024-01-10T11:56:14;28.70;;;15.83;;
2944;SDS011;1482;51.398;7.128;2024-01-10T11:58:54;25.13;;;15.30;;
2944;SDS011;1482;51.398;7.128;2024-01-10T12:01:27;25.30;;;15.23;;
2944;SDS011;1482;51.398;7.128;2024-01-10T12:03:53;26.20;;;15.37;;
2944;SDS011;1482;51.398;7.128;2024-01-10T12:06:21;29.93;;;15.80;;
2944;SDS011;1482;51.398;7.128;2024-01-10T12:08:47;32.30;;;15.50;;
2944;SDS011;1482;51.398;7.128;2024-01-10T12:11:14;30.07;;;14.90;;
2944;SDS011;1482;51.398;7.128;2024-01-10T12:13:40;24.03;;;14.50;;
2944;SDS011;1482;51.398;7.128;2024-01-10T12:16:06;26.13;;;14.63;;
2944;SDS011;1482;51.398;7.128;2024-01-10T12:18:32;31.20;;;16.20;;
2944;SDS011;1482;51.398;7.128;2024-01-10T12:20:57;24.13;;;15.07;;
2944;SDS011;1482;51.398;7.128;2024-01-10T12:23:23;31.60;;;13.97;;
2944;SDS011;1482;51.398;7.128;2024-01-10T12:25:49;33.70;;;14.97;;
2944;SDS011;1482;51.398;7.128;2024-01-10T12:28:17;32.07;;;16.30;;
2944;SDS011;1482;51.398;7.128;2024-01-10T12:30:42;26.47;;;15.83;;
2944;SDS011;1482;51.398;7.128;2024-01-10T12:33:09;29.03;;;15.30;;
2944;SDS011;1482;51.398;7.128;2024-01-10T12:35:34;26.13;;;15.00;;
2944;SDS011;1482;51.398;7.128;2024-01-10T12:38:00;32.87;;;16.70;;
2944;SDS011;1482;51.398;7.128;2024-01-10T12:40:26;30.70;;;15.00;;
2944;SDS011;1482;51.398;7.128;2024-01-10T12:43:04;25.60;;;14.20;;
2944;SDS011;1482;51.398;7.128;2024-01-10T12:45:30;28.00;;;13.60;;
2944;SDS011;1482;51.398;7.128;2024-01-10T12:47:57;26.37;;;14.30;;
2944;SDS011;1482;51.398;7.128;2024-01-10T12:50:23;23.63;;;15.30;;
2944;SDS011;1482;51.398;7.128;2024-01-10T12:52:52;24.07;;;13.13;;
2944;SDS011;1482;51.398;7.128;2024-01-10T12:55:17;23.73;;;14.00;;
2944;SDS011;1482;51.398;7.128;2024-01-10T12:57:43;34.33;;;15.30;;
2944;SDS011;1482;51.398;7.128;2024-01-10T13:00:09;29.00;;;15.90;;
2944;SDS011;1482;51.398;7.128;2024-01-10T13:02:36;24.97;;;15.03;;
2944;SDS011;1482;51.398;7.128;2024-01-10T13:05:03;26.73;;;16.13;;
2944;SDS011;1482;51.398;7.128;2024-01-10T13:07:29;30.17;;;16.03;;
2944;SDS011;1482;51.398;7.128;2024-01-10T13:09:56;22.47;;;14.80;;
2944;SDS011;1482;51.398;7.128;2024-01-10T13:12:22;27.20;;;15.33;;
2944;SDS011;1482;51.398;7.128;2024-01-10T13:14:48;25.43;;;14.70;;
2944;SDS011;1482;51.398;7.128;2024-01-10T13:17:13;29.87;;;15.57;;
2944;SDS011;1482;51.398;7.128;2024-01-10T13:19:39;32.00;;;16.77;;
2944;SDS011;1482;51.398;7.128;2024-01-10T13:22:04;27.97;;;15.43;;
2944;SDS011;1482;51.398;7.128;2024-01-10T13:24:30;29.33;;;15.17;;
2944;SDS011;1482;51.398;7.128;2024-01-10T13:26:55;27.60;;;15.50;;
2944;SDS011;1482;51.398;7.128;2024-01-10T13:29:21;28.23;;;15.90;;
2944;SDS011;1482;51.398;7.128;2024-01-10T13:31:47;44.73;;;16.90;;
2944;SDS011;1482;51.398;7.128;2024-01-10T13:34:14;31.60;;;15.10;;
2944;SDS011;1482;51.398;7.128;2024-01-10T13:36:40;30.13;;;17.23;;
2944;SDS011;1482;51.398;7.128;2024-01-10T13:39:06;26.27;;;15.30;;
2944;SDS011;1482;51.398;7.128;2024-01-10T13:41:32;31.03;;;16.70;;
2944;SDS011;1482;51.398;7.128;2024-01-10T13:43:57;27.07;;;16.40;;
2944;SDS011;1482;51.398;7.128;2024-01-10T13:46:23;29.97;;;17.47;;
2944;SDS011;1482;51.398;7.128;2024-01-10T13:48:48;25.73;;;15.03;;
2944;SDS011;1482;51.398;7.128;2024-01-10T13:51:14;28.50;;;15.00;;
2944;SDS011;1482;51.398;7.128;2024-01-10T13:53:40;31.10;;;17.30;;
2944;SDS011;1482;51.398;7.128;2024-01-10T13:56:05;29.07;;;15.03;;
2944;SDS011;1482;51.398;7.128;2024-01-10T13:58:31;28.40;;;15.57;;
2944;SDS011;1482;51.398;7.128;2024-01-10T14:00:57;24.77;;;15.50;;
2944;SDS011;1482;51.398;7.128;2024-01-10T14:03:23;31.60;;;16.07;;
2944;SDS011;1482;51.398;7.128;2024-01-10T14:05:49;27.20;;;14.47;;
2944;SDS011;1482;51.398;7.128;2024-01-10T14:08:14;29.13;;;16.00;;
2944;SDS011;1482;51.398;7.128;2024-01-10T14:10:40;31.23;;;17.10;;
2944;SDS011;1482;51.398;7.128;2024-01-10T14:13:07;32.93;;;17.33;;
2944;SDS011;1482;51.398;7.128;2024-01-10T14:15:32;35.50;;;16.13;;
2944;SDS011;1482;51.398;7.128;2024-01-10T14:17:58;32.63;;;16.70;;
2944;SDS011;1482;51.398;7.128;2024-01-10T14:20:23;33.20;;;15.33;;
2944;SDS011;1482;51.398;7.128;2024-01-10T14:22:49;25.50;;;13.70;;
2944;SDS011;1482;51.398;7.128;2024-01-10T14:25:15;24.00;;;14.23;;
2944;SDS011;1482;51.398;7.128;2024-01-10T14:27:40;23.53;;;14.27;;
2944;SDS011;1482;51.398;7.128;2024-01-10T14:30:06;31.40;;;15.60;;
2944;SDS011;1482;51.398;7.128;2024-01-10T14:32:35;33.17;;;15.97;;
2944;SDS011;1482;51.398;7.128;2024-01-10T14:35:01;32.87;;;15.20;;
2944;SDS011;1482;51.398;7.128;2024-01-10T14:37:27;29.13;;;15.67;;
2944;SDS011;1482;51.398;7.128;2024-01-10T14:39:52;28.77;;;15.60;;
2944;SDS011;1482;51.398;7.128;2024-01-10T14:42:18;32.27;;;17.50;;
2944;SDS011;1482;51.398;7.128;2024-01-10T14:44:43;32.07;;;16.47;;
2944;SDS011;1482;51.398;7.128;2024-01-10T14:47:10;31.20;;;18.00;;
2944;SDS011;1482;51.398;7.128;2024-01-10T14:49:35;34.57;;;19.83;;
2944;SDS011;1482;51.398;7.128;2024-01-10T14:52:01;38.43;;;20.97;;
2944;SDS011;1482;51.398;7.128;2024-01-10T14:54:27;34.30;;;17.87;;
2944;SDS011;1482;51.398;7.128;2024-01-10T14:56:52;33.47;;;17.77;;
2944;SDS011;1482;51.398;7.128;2024-01-10T14:59:18;29.83;;;15.57;;
2944;SDS011;1482;51.398;7.128;2024-01-10T15:01:44;25.70;;;14.57;;
2944;SDS011;1482;51.398;7.128;2024-01-10T15:04:10;39.40;;;17.63;;